createdAt,value
2022-11-17T00:01:22.233Z,7.63
2022-11-17T00:04:09.269Z,8.30
2022-11-17T00:06:57.005Z,11.77
2022-11-17T00:09:44.406Z,8.43
2022-11-17T00:12:49.069Z,7.27
2022-11-17T00:15:36.132Z,8.33
2022-11-17T00:18:42.136Z,9.63
2022-11-17T00:21:29.543Z,10.30
2022-11-17T00:24:17.830Z,9.20
2022-11-17T00:27:05.016Z,7.70
2022-11-17T00:29:52.216Z,5.73
2022-11-17T00:32:56.974Z,10.30
2022-11-17T00:35:45.952Z,6.77
2022-11-17T00:38:33.142Z,9.30
2022-11-17T00:41:20.551Z,11.43
2022-11-17T00:44:08.237Z,9.70
2022-11-17T00:46:57.196Z,11.97
2022-11-17T00:49:44.366Z,5.80
2022-11-17T00:52:33.020Z,8.57
2022-11-17T00:55:20.227Z,8.23
2022-11-17T00:58:07.718Z,8.00
2022-11-17T01:00:55.082Z,8.40
2022-11-17T01:03:42.420Z,10.27
2022-11-17T01:06:31.414Z,7.27
2022-11-17T01:09:22.556Z,8.53
2022-11-17T01:12:09.885Z,8.43
2022-11-17T01:14:57.077Z,7.93
2022-11-17T01:17:44.554Z,6.90
2022-11-17T01:20:32.047Z,7.07
2022-11-17T01:23:19.441Z,9.57
2022-11-17T01:26:10.822Z,7.53
2022-11-17T01:28:59.952Z,4.40
2022-11-17T01:31:51.335Z,6.90
2022-11-17T01:34:38.657Z,5.93
2022-11-17T01:37:27.656Z,6.40
2022-11-17T01:40:15.013Z,9.80
2022-11-17T01:43:06.122Z,7.60
2022-11-17T01:45:53.425Z,9.70
2022-11-17T01:48:41.836Z,8.47
2022-11-17T01:51:31.825Z,6.60
2022-11-17T01:54:22.938Z,6.97
2022-11-17T01:57:13.365Z,7.37
2022-11-17T02:00:04.935Z,6.97
2022-11-17T02:02:53.798Z,7.60
2022-11-17T02:05:46.432Z,6.80
2022-11-17T02:08:36.239Z,8.40
2022-11-17T02:11:25.040Z,6.33
2022-11-17T02:14:12.466Z,5.30
2022-11-17T02:17:08.952Z,7.47
2022-11-17T02:20:07.176Z,3.97
2022-11-17T02:23:19.670Z,6.07
2022-11-17T02:26:32.946Z,4.83
2022-11-17T02:29:28.683Z,3.97
2022-11-17T02:32:22.766Z,5.57
2022-11-17T02:35:18.583Z,5.93
2022-11-17T02:38:16.815Z,7.73
2022-11-17T02:41:11.421Z,3.73
2022-11-17T02:44:05.095Z,4.67
2022-11-17T02:46:58.879Z,6.00
2022-11-17T02:49:50.523Z,3.87
2022-11-17T02:52:38.270Z,7.07
2022-11-17T02:55:25.500Z,6.57
2022-11-17T02:58:13.431Z,7.63
2022-11-17T03:01:20.637Z,8.67
2022-11-17T03:04:27.148Z,6.70
2022-11-17T03:07:30.826Z,6.83
2022-11-17T03:10:21.579Z,9.80
2022-11-17T03:13:14.537Z,7.40
2022-11-17T03:16:12.526Z,6.03
2022-11-17T03:19:07.487Z,6.23
2022-11-17T03:22:00.529Z,6.73
2022-11-17T03:24:51.473Z,8.30
2022-11-17T03:27:41.406Z,6.10
2022-11-17T03:30:36.165Z,7.80
2022-11-17T03:33:26.730Z,8.73
2022-11-17T03:36:17.736Z,8.03
2022-11-17T03:39:10.844Z,8.03
2022-11-17T03:42:03.203Z,6.80
2022-11-17T03:44:54.817Z,7.20
2022-11-17T03:47:44.508Z,6.63
2022-11-17T03:50:37.478Z,8.67
2022-11-17T03:53:25.244Z,6.40
2022-11-17T03:56:27.108Z,8.83
2022-11-17T03:59:19.281Z,4.60
2022-11-17T04:02:07.021Z,8.13
2022-11-17T04:05:06.584Z,4.83
2022-11-17T04:07:54.003Z,6.80
2022-11-17T04:10:55.283Z,6.67
2022-11-17T04:14:01.467Z,7.13
2022-11-17T04:16:48.605Z,5.30
2022-11-17T04:19:35.846Z,7.43
2022-11-17T04:22:23.221Z,8.07
2022-11-17T04:25:31.043Z,8.13
2022-11-17T04:28:35.986Z,7.60
2022-11-17T04:31:26.351Z,8.77
2022-11-17T04:34:13.730Z,8.27
2022-11-17T04:37:06.975Z,7.30
2022-11-17T04:39:55.497Z,9.00
2022-11-17T04:42:41.928Z,10.23
2022-11-17T04:45:29.471Z,4.50
2022-11-17T04:48:18.113Z,6.00
2022-11-17T04:51:05.617Z,7.27
2022-11-17T04:53:53.873Z,5.57
2022-11-17T04:56:41.973Z,8.63
2022-11-17T04:59:29.045Z,9.50
2022-11-17T05:02:16.431Z,4.03
2022-11-17T05:05:05.885Z,10.60
2022-11-17T05:07:52.820Z,8.60
2022-11-17T05:10:57.679Z,9.57
2022-11-17T05:13:44.782Z,7.80
2022-11-17T05:16:49.387Z,6.00
2022-11-17T05:19:38.668Z,7.27
2022-11-17T05:22:44.660Z,10.93
2022-11-17T05:25:31.735Z,10.20
2022-11-17T05:28:19.155Z,11.40
2022-11-17T05:31:07.019Z,10.50
2022-11-17T05:33:55.095Z,9.93
2022-11-17T05:36:42.880Z,9.03
2022-11-17T05:39:31.213Z,11.50
2022-11-17T05:42:18.332Z,8.03
2022-11-17T05:45:06.788Z,11.23
2022-11-17T05:47:54.136Z,4.90
2022-11-17T05:50:41.624Z,6.57
2022-11-17T05:53:29.902Z,9.53
2022-11-17T05:56:33.419Z,9.37
2022-11-17T05:59:28.002Z,6.37
2022-11-17T06:02:18.963Z,8.27
2022-11-17T06:05:06.655Z,10.43
2022-11-17T06:07:57.910Z,9.90
2022-11-17T06:10:45.124Z,11.93
2022-11-17T06:13:34.031Z,5.67
2022-11-17T06:16:25.047Z,9.70
2022-11-17T06:19:17.087Z,7.50
2022-11-17T06:22:12.236Z,10.70
2022-11-17T06:25:00.866Z,6.67
2022-11-17T06:27:49.899Z,8.97
2022-11-17T06:30:39.530Z,7.93
2022-11-17T06:33:30.325Z,8.73
2022-11-17T06:36:17.815Z,10.60
2022-11-17T06:39:05.182Z,6.33
2022-11-17T06:41:52.425Z,9.90
2022-11-17T06:44:39.763Z,10.00
2022-11-17T06:47:36.014Z,6.33
2022-11-17T06:50:23.036Z,12.03
2022-11-17T06:53:11.735Z,4.27
2022-11-17T06:56:03.916Z,4.00
2022-11-17T06:58:51.358Z,7.57
2022-11-17T07:01:39.052Z,5.90
2022-11-17T07:04:27.582Z,5.73
2022-11-17T07:07:15.067Z,7.50
2022-11-17T07:10:02.832Z,7.33
2022-11-17T07:12:50.294Z,8.03
2022-11-17T07:15:37.656Z,9.07
2022-11-17T07:18:25.787Z,8.83
2022-11-17T07:21:15.489Z,7.87
2022-11-17T07:24:02.692Z,7.37
2022-11-17T07:26:49.977Z,8.43
2022-11-17T07:29:37.451Z,7.63
2022-11-17T07:32:25.365Z,8.10
2022-11-17T07:35:12.586Z,6.00
2022-11-17T07:38:02.479Z,4.97
2022-11-17T07:40:49.952Z,7.00
2022-11-17T07:43:38.231Z,6.90
2022-11-17T07:46:26.032Z,7.07
2022-11-17T07:49:13.112Z,6.27
2022-11-17T07:52:00.304Z,7.40
2022-11-17T07:54:49.268Z,7.70
2022-11-17T07:57:36.425Z,5.20
2022-11-17T08:00:24.233Z,9.37
2022-11-17T08:03:11.553Z,5.70
2022-11-17T08:06:02.807Z,6.07
2022-11-17T08:08:50.329Z,5.83
2022-11-17T08:11:38.825Z,5.27
2022-11-17T08:14:25.942Z,7.30
2022-11-17T08:17:13.406Z,7.17
2022-11-17T08:20:00.905Z,5.63
2022-11-17T08:22:48.328Z,7.93
2022-11-17T08:25:35.447Z,6.33
2022-11-17T08:28:24.513Z,6.47
2022-11-17T08:31:13.051Z,9.13
2022-11-17T08:34:00.133Z,8.70
2022-11-17T08:36:47.748Z,6.37
2022-11-17T08:39:35.268Z,7.57
2022-11-17T08:42:22.861Z,5.20
2022-11-17T08:45:12.154Z,7.47
2022-11-17T08:47:59.707Z,10.20
2022-11-17T08:50:47.111Z,8.97
2022-11-17T08:53:34.878Z,8.57
2022-11-17T08:56:22.431Z,5.57
2022-11-17T08:59:12.841Z,4.93
2022-11-17T09:02:01.280Z,9.90
2022-11-17T09:04:48.440Z,7.30
2022-11-17T09:07:36.586Z,7.13
2022-11-17T09:10:23.648Z,7.83
2022-11-17T09:13:12.742Z,8.30
2022-11-17T09:16:04.201Z,8.67
2022-11-17T09:18:56.651Z,6.67
2022-11-17T09:21:44.684Z,9.23
2022-11-17T09:24:31.796Z,9.63
2022-11-17T09:27:19.239Z,9.40
2022-11-17T09:30:08.023Z,10.67
2022-11-17T09:32:55.411Z,10.87
2022-11-17T09:35:44.244Z,10.27
2022-11-17T09:38:31.299Z,13.30
2022-11-17T09:41:24.568Z,11.33
2022-11-17T09:44:29.238Z,11.03
2022-11-17T09:47:32.722Z,9.93
2022-11-17T09:50:24.548Z,11.70
2022-11-17T09:53:19.447Z,15.30
2022-11-17T09:56:09.898Z,9.27
2022-11-17T09:59:00.694Z,10.87
2022-11-17T10:01:47.864Z,10.63
2022-11-17T10:04:35.403Z,13.00
2022-11-17T10:07:23.330Z,13.07
2022-11-17T10:10:18.603Z,12.53
2022-11-17T10:13:11.553Z,9.87
2022-11-17T10:16:03.227Z,11.70
2022-11-17T10:18:50.371Z,10.87
2022-11-17T10:21:38.892Z,10.60
2022-11-17T10:24:38.011Z,13.93
2022-11-17T10:27:28.348Z,9.93
2022-11-17T10:30:23.628Z,9.57
2022-11-17T10:33:14.704Z,13.40
2022-11-17T10:36:02.786Z,12.00
2022-11-17T10:38:51.696Z,12.37
2022-11-17T10:41:42.005Z,11.97
2022-11-17T10:44:33.522Z,14.60
2022-11-17T10:47:30.491Z,9.00
2022-11-17T10:50:23.952Z,9.80
2022-11-17T10:53:24.719Z,6.30
2022-11-17T10:56:15.456Z,6.60
2022-11-17T10:59:13.698Z,12.90
2022-11-17T11:02:28.183Z,16.00
2022-11-17T11:05:17.385Z,8.57
2022-11-17T11:08:19.492Z,10.57
2022-11-17T11:11:13.806Z,9.50
2022-11-17T11:14:06.417Z,9.37
2022-11-17T11:16:55.448Z,9.80
2022-11-17T11:19:47.275Z,9.27
2022-11-17T11:22:37.934Z,11.60
2022-11-17T11:25:33.888Z,6.60
2022-11-17T11:28:41.312Z,8.17
2022-11-17T11:31:43.041Z,8.30
2022-11-17T11:34:50.943Z,10.93
2022-11-17T11:37:44.952Z,9.47
2022-11-17T11:40:36.966Z,9.60
2022-11-17T11:43:37.141Z,9.67
2022-11-17T11:46:32.262Z,8.60
2022-11-17T11:49:28.364Z,9.47
2022-11-17T11:52:21.729Z,11.43
2022-11-17T11:55:20.015Z,8.20
2022-11-17T11:58:16.350Z,6.33
2022-11-17T12:01:07.737Z,6.30
2022-11-17T12:04:15.306Z,6.67
2022-11-17T12:07:15.038Z,8.80
2022-11-17T12:10:07.801Z,8.77
2022-11-17T12:12:55.199Z,6.57
2022-11-17T12:15:42.497Z,6.00
2022-11-17T12:18:33.406Z,6.80
2022-11-17T12:21:23.875Z,7.20
2022-11-17T12:24:16.989Z,7.40
2022-11-17T12:27:44.442Z,3.83
2022-11-17T12:30:56.499Z,9.77
2022-11-17T12:34:23.027Z,6.70
2022-11-17T12:37:30.917Z,9.07
2022-11-17T12:40:45.555Z,6.90
2022-11-17T12:43:34.216Z,6.50
2022-11-17T12:46:27.813Z,8.87
2022-11-17T12:49:25.621Z,7.40
2022-11-17T12:52:17.913Z,6.60
2022-11-17T12:55:16.827Z,4.90
2022-11-17T12:58:17.969Z,7.37
2022-11-17T13:01:14.616Z,7.63
2022-11-17T13:04:08.590Z,6.43
2022-11-17T13:07:01.722Z,8.40
2022-11-17T13:09:52.680Z,9.80
2022-11-17T13:12:39.779Z,6.27
2022-11-17T13:15:27.279Z,7.43
2022-11-17T13:18:30.506Z,7.33
2022-11-17T13:21:30.053Z,7.33
2022-11-17T13:29:07.721Z,6.77
2022-11-17T13:32:17.244Z,6.47
2022-11-17T13:35:20.171Z,7.40
2022-11-17T13:38:18.887Z,6.73
2022-11-17T13:41:07.225Z,7.50
2022-11-17T13:43:55.902Z,8.07
2022-11-17T13:46:43.374Z,5.40
2022-11-17T13:49:37.254Z,7.63
2022-11-17T13:52:40.500Z,5.60
2022-11-17T13:55:32.055Z,8.33
2022-11-17T13:58:28.568Z,6.97
2022-11-17T14:01:15.953Z,6.63
2022-11-17T14:04:20.295Z,7.47
2022-11-17T14:07:12.298Z,7.63
2022-11-17T14:10:14.341Z,7.03
2022-11-17T14:13:27.560Z,5.63
2022-11-17T14:16:27.546Z,7.27
2022-11-17T14:19:32.826Z,6.93
2022-11-17T14:22:31.262Z,5.53
2022-11-17T14:25:20.446Z,6.83
2022-11-17T14:28:13.935Z,9.70
2022-11-17T14:31:01.327Z,8.10
2022-11-17T14:33:50.390Z,6.33
2022-11-17T14:36:39.210Z,7.13
2022-11-17T14:39:26.630Z,7.90
2022-11-17T14:42:15.321Z,5.97
2022-11-17T14:45:02.391Z,8.33
2022-11-17T14:47:49.957Z,8.47
2022-11-17T14:50:37.158Z,10.70
2022-11-17T14:53:24.994Z,7.93
2022-11-17T14:56:15.484Z,8.10
2022-11-17T14:59:04.167Z,7.40
2022-11-17T15:01:51.503Z,4.87
2022-11-17T15:04:56.447Z,8.13
2022-11-17T15:07:44.435Z,7.40
2022-11-17T15:10:31.907Z,6.43
2022-11-17T15:13:19.284Z,9.33
2022-11-17T15:16:08.683Z,10.40
2022-11-17T15:18:56.066Z,9.13
2022-11-17T15:21:43.443Z,6.93
2022-11-17T15:24:30.939Z,9.63
2022-11-17T15:27:18.212Z,9.27
2022-11-17T15:30:06.672Z,11.03
2022-11-17T15:32:55.481Z,10.67
2022-11-17T15:35:42.843Z,11.03
2022-11-17T15:38:30.426Z,13.37
2022-11-17T15:41:17.948Z,10.50
2022-11-17T15:44:05.891Z,7.87
2022-11-17T15:46:52.933Z,11.57
2022-11-17T15:49:41.603Z,9.80
2022-11-17T15:52:41.973Z,13.43
2022-11-17T15:55:36.050Z,8.17
2022-11-17T15:58:23.278Z,9.43
2022-11-17T16:01:15.098Z,10.77
2022-11-17T16:04:04.554Z,8.80
2022-11-17T16:06:53.144Z,10.77
2022-11-17T16:09:40.197Z,13.23
2022-11-17T16:12:27.534Z,12.83
2022-11-17T16:15:15.019Z,14.03
2022-11-17T16:18:02.275Z,13.90
2022-11-17T16:20:49.674Z,11.97
2022-11-17T16:23:43.061Z,13.27
2022-11-17T16:26:30.614Z,9.67
2022-11-17T16:29:18.215Z,9.50
2022-11-17T16:32:05.679Z,10.27
2022-11-17T16:34:53.136Z,9.17
2022-11-17T16:37:40.559Z,10.60
2022-11-17T16:40:29.434Z,7.43
2022-11-17T16:43:16.929Z,14.33
2022-11-17T16:46:16.768Z,9.50
2022-11-17T16:49:06.199Z,14.23
2022-11-17T16:51:54.715Z,15.30
2022-11-17T16:54:42.049Z,9.63
2022-11-17T16:57:31.138Z,10.57
2022-11-17T17:00:18.997Z,11.00
2022-11-17T17:03:06.395Z,13.00
2022-11-17T17:05:53.791Z,10.17
2022-11-17T17:08:41.989Z,14.53
2022-11-17T17:11:31.772Z,11.13
2022-11-17T17:14:20.231Z,13.30
2022-11-17T17:17:07.404Z,12.23
2022-11-17T17:19:55.008Z,11.63
2022-11-17T17:22:42.446Z,11.23
2022-11-17T17:25:29.898Z,9.63
2022-11-17T17:28:17.242Z,10.93
2022-11-17T17:31:06.270Z,13.13
2022-11-17T17:33:55.893Z,13.43
2022-11-17T17:36:42.869Z,11.33
2022-11-17T17:39:30.350Z,13.00
2022-11-17T17:42:17.788Z,13.17
2022-11-17T17:45:05.709Z,15.13
2022-11-17T17:47:54.212Z,11.80
2022-11-17T17:50:41.294Z,13.87
2022-11-17T17:53:28.929Z,7.37
2022-11-17T17:56:17.422Z,14.07
2022-11-17T17:59:04.523Z,10.10
2022-11-17T18:01:53.255Z,7.30
2022-11-17T18:04:42.146Z,16.20
2022-11-17T18:07:29.429Z,7.80
2022-11-17T18:10:18.231Z,13.77
2022-11-17T18:13:10.540Z,12.50
2022-11-17T18:15:58.381Z,12.87
2022-11-17T18:18:46.225Z,13.67
2022-11-17T18:21:35.380Z,15.07
2022-11-17T18:24:22.956Z,8.30
2022-11-17T18:27:10.061Z,10.30
2022-11-17T18:29:57.489Z,8.13
2022-11-17T18:32:44.807Z,18.47
2022-11-17T18:35:32.155Z,10.23
2022-11-17T18:38:20.867Z,17.47
2022-11-17T18:41:10.243Z,15.23
2022-11-17T18:43:57.824Z,18.60
2022-11-17T18:46:45.486Z,13.37
2022-11-17T18:49:34.439Z,17.67
2022-11-17T18:52:21.417Z,12.70
2022-11-17T18:55:10.707Z,12.27
2022-11-17T18:57:57.872Z,11.07
2022-11-17T19:00:45.243Z,8.77
2022-11-17T19:03:32.781Z,16.20
2022-11-17T19:06:21.801Z,12.77
2022-11-17T19:09:09.163Z,16.77
2022-11-17T19:11:57.719Z,14.47
2022-11-17T19:14:44.882Z,14.43
2022-11-17T19:17:32.267Z,17.20
2022-11-17T19:20:20.123Z,14.13
2022-11-17T19:23:07.765Z,12.67
2022-11-17T19:25:55.170Z,9.37
2022-11-17T19:28:44.696Z,8.40
2022-11-17T19:31:32.016Z,16.50
2022-11-17T19:34:19.166Z,12.03
2022-11-17T19:37:06.728Z,16.13
2022-11-17T19:39:54.112Z,15.13
2022-11-17T19:42:41.847Z,15.67
2022-11-17T19:45:30.822Z,13.37
2022-11-17T19:48:17.928Z,17.80
2022-11-17T19:51:14.500Z,14.50
2022-11-17T19:54:03.948Z,18.07
2022-11-17T19:56:51.181Z,14.30
2022-11-17T19:59:38.514Z,12.40
2022-11-17T20:02:27.344Z,16.53
2022-11-17T20:05:14.599Z,16.80
2022-11-17T20:08:01.872Z,15.90
2022-11-17T20:10:49.283Z,12.27
2022-11-17T20:13:37.875Z,12.70
2022-11-17T20:16:27.349Z,15.53
2022-11-17T20:19:16.489Z,18.63
2022-11-17T20:22:04.040Z,10.40
2022-11-17T20:24:51.519Z,11.50
2022-11-17T20:27:39.044Z,15.67
2022-11-17T20:30:26.446Z,13.70
2022-11-17T20:33:14.040Z,16.50
2022-11-17T20:36:03.386Z,18.27
2022-11-17T20:38:52.095Z,14.03
2022-11-17T20:41:39.306Z,17.77
2022-11-17T20:44:26.511Z,17.17
2022-11-17T20:47:14.196Z,19.23
2022-11-17T20:50:01.363Z,17.37
2022-11-17T20:52:50.195Z,18.80
2022-11-17T20:55:38.256Z,16.73
2022-11-17T20:58:26.144Z,17.90
2022-11-17T21:01:15.659Z,14.60
2022-11-17T21:04:03.300Z,17.83
2022-11-17T21:06:50.673Z,21.07
2022-11-17T21:09:40.073Z,18.40
2022-11-17T21:12:28.591Z,12.07
2022-11-17T21:15:16.503Z,18.40
2022-11-17T21:18:20.940Z,15.60
2022-11-17T21:21:09.534Z,18.60
2022-11-17T21:23:56.793Z,13.30
2022-11-17T21:26:45.597Z,18.83
2022-11-17T21:29:32.979Z,16.40
2022-11-17T21:32:20.032Z,17.57
2022-11-17T21:35:07.812Z,9.10
2022-11-17T21:37:55.663Z,15.60
2022-11-17T21:40:42.719Z,14.83
2022-11-17T21:43:32.440Z,17.13
2022-11-17T21:46:21.305Z,18.13
2022-11-17T21:49:08.771Z,16.03
2022-11-17T21:51:56.246Z,18.67
2022-11-17T21:54:43.703Z,19.07
2022-11-17T21:57:31.296Z,17.97
2022-11-17T22:00:20.732Z,17.83
2022-11-17T22:03:08.030Z,15.63
2022-11-17T22:06:01.032Z,12.17
2022-11-17T22:08:49.834Z,15.47
2022-11-17T22:11:38.108Z,14.50
2022-11-17T22:14:26.257Z,20.57
2022-11-17T22:17:14.733Z,18.83
2022-11-17T22:20:01.887Z,10.27
2022-11-17T22:22:53.661Z,18.43
2022-11-17T22:25:45.609Z,19.20
2022-11-17T22:28:33.394Z,16.33
2022-11-17T22:31:23.514Z,14.87
2022-11-17T22:34:12.125Z,18.67
2022-11-17T22:36:59.392Z,17.80
2022-11-17T22:39:46.799Z,16.30
2022-11-17T22:42:34.230Z,19.47
2022-11-17T22:45:21.758Z,17.50
2022-11-17T22:48:10.211Z,16.40
2022-11-17T22:51:00.146Z,17.73
2022-11-17T22:53:47.475Z,18.43
2022-11-17T22:56:35.783Z,17.53
2022-11-17T22:59:24.046Z,20.33
2022-11-17T23:02:11.255Z,18.13
2022-11-17T23:04:58.716Z,15.97
2022-11-17T23:07:47.534Z,18.07
2022-11-17T23:10:34.712Z,17.50
2022-11-17T23:13:22.056Z,20.43
2022-11-17T23:16:09.605Z,21.00
2022-11-17T23:18:57.596Z,13.47
2022-11-17T23:21:44.978Z,14.80
2022-11-17T23:24:33.668Z,21.77
2022-11-17T23:27:20.824Z,15.47
2022-11-17T23:30:09.062Z,23.40
2022-11-17T23:32:56.446Z,19.80
2022-11-17T23:35:43.548Z,21.50
2022-11-17T23:38:31.668Z,22.23
2022-11-17T23:41:21.874Z,20.80
2022-11-17T23:44:09.071Z,27.43
2022-11-17T23:46:56.352Z,12.23
2022-11-17T23:49:43.780Z,18.13
2022-11-17T23:52:32.000Z,15.83
2022-11-17T23:55:19.229Z,21.20
2022-11-17T23:58:08.089Z,25.43
